createdAt,value
2022-12-06T00:01:39.810Z,6.68
2022-12-06T00:04:09.200Z,6.13
2022-12-06T00:06:42.892Z,5.78
2022-12-06T00:09:17.613Z,6.25
2022-12-06T00:11:44.764Z,6.40
2022-12-06T00:14:12.232Z,6.20
2022-12-06T00:16:39.147Z,5.88
2022-12-06T00:19:06.568Z,6.78
2022-12-06T00:21:35.822Z,6.13
2022-12-06T00:24:08.131Z,6.00
2022-12-06T00:26:37.160Z,6.07
2022-12-06T00:29:04.841Z,6.75
2022-12-06T00:31:32.758Z,6.15
2022-12-06T00:33:59.611Z,7.28
2022-12-06T00:36:29.368Z,9.18
2022-12-06T00:38:58.884Z,9.27
2022-12-06T00:41:25.777Z,7.60
2022-12-06T00:43:53.585Z,7.30
2022-12-06T00:46:23.552Z,8.60
2022-12-06T00:48:51.831Z,7.78
2022-12-06T00:51:20.556Z,7.38
2022-12-06T00:53:48.129Z,6.82
2022-12-06T00:56:15.225Z,7.28
2022-12-06T00:58:42.606Z,7.28
2022-12-06T01:01:21.786Z,6.78
2022-12-06T01:03:53.833Z,6.72
2022-12-06T01:06:23.572Z,6.28
2022-12-06T01:08:50.630Z,6.22
2022-12-06T01:11:18.465Z,6.40
2022-12-06T01:13:45.141Z,5.47
2022-12-06T01:16:18.237Z,5.47
2022-12-06T01:18:46.133Z,5.57
2022-12-06T01:21:15.745Z,5.82
2022-12-06T01:23:43.919Z,5.47
2022-12-06T01:26:31.336Z,5.53
2022-12-06T01:28:59.721Z,5.68
2022-12-06T01:31:32.137Z,5.85
2022-12-06T01:34:02.473Z,5.63
2022-12-06T01:36:29.102Z,5.80
2022-12-06T01:38:58.009Z,5.47
2022-12-06T01:41:27.272Z,6.32
2022-12-06T01:43:55.370Z,5.45
2022-12-06T01:46:39.930Z,5.80
2022-12-06T01:49:08.963Z,6.13
2022-12-06T01:51:36.270Z,5.60
2022-12-06T01:54:05.584Z,6.45
2022-12-06T01:56:32.459Z,5.88
2022-12-06T01:59:00.300Z,5.78
2022-12-06T02:01:30.088Z,5.55
2022-12-06T02:04:00.042Z,5.15
2022-12-06T02:06:28.297Z,4.88
2022-12-06T02:08:59.061Z,5.30
2022-12-06T02:11:29.438Z,5.60
2022-12-06T02:13:59.533Z,5.80
2022-12-06T02:16:32.070Z,5.13
2022-12-06T02:19:10.791Z,5.63
2022-12-06T02:21:57.129Z,5.68
2022-12-06T02:24:39.083Z,5.53
2022-12-06T02:27:27.508Z,5.65
2022-12-06T02:30:11.056Z,6.10
2022-12-06T02:32:55.992Z,5.90
2022-12-06T02:35:28.712Z,6.15
2022-12-06T02:38:28.347Z,6.05
2022-12-06T02:41:03.840Z,6.25
2022-12-06T02:43:42.458Z,5.40
2022-12-06T02:46:12.251Z,5.40
2022-12-06T02:48:40.263Z,6.00
2022-12-06T02:51:11.951Z,5.25
2022-12-06T02:53:43.791Z,5.32
2022-12-06T02:56:12.434Z,5.60
2022-12-06T02:58:39.155Z,5.03
2022-12-06T03:01:22.256Z,5.57
2022-12-06T03:03:54.787Z,6.35
2022-12-06T03:09:26.446Z,4.50
2022-12-06T03:12:17.875Z,5.20
2022-12-06T03:14:53.169Z,5.13
2022-12-06T03:17:27.960Z,4.63
2022-12-06T03:20:00.545Z,5.40
2022-12-06T03:22:39.438Z,4.90
2022-12-06T03:25:09.122Z,4.75
2022-12-06T03:27:37.286Z,4.53
2022-12-06T03:30:08.385Z,4.95
2022-12-06T03:32:38.231Z,5.30
2022-12-06T03:35:08.913Z,5.25
2022-12-06T03:37:40.057Z,5.57
2022-12-06T03:40:25.862Z,4.55
2022-12-06T03:42:53.421Z,4.85
2022-12-06T03:45:23.243Z,4.50
2022-12-06T03:48:03.020Z,5.00
2022-12-06T03:50:35.574Z,5.70
2022-12-06T03:53:02.420Z,5.13
2022-12-06T03:55:29.065Z,4.72
2022-12-06T03:57:55.760Z,5.05
2022-12-06T04:00:22.548Z,4.90
2022-12-06T04:02:49.218Z,6.10
2022-12-06T04:05:15.978Z,5.95
2022-12-06T04:07:42.716Z,5.78
2022-12-06T04:10:09.710Z,5.28
2022-12-06T04:12:55.035Z,4.93
2022-12-06T04:15:23.019Z,4.45
2022-12-06T04:18:08.146Z,4.57
2022-12-06T04:20:53.458Z,4.85
2022-12-06T04:23:21.098Z,3.92
2022-12-06T04:25:47.963Z,4.05
2022-12-06T04:28:33.164Z,4.47
2022-12-06T04:31:22.112Z,4.47
2022-12-06T04:34:09.009Z,4.45
2022-12-06T04:36:55.859Z,4.35
2022-12-06T04:39:22.553Z,3.90
2022-12-06T04:42:08.217Z,4.35
2022-12-06T04:44:35.019Z,3.40
2022-12-06T04:47:02.193Z,4.47
2022-12-06T04:49:28.858Z,3.95
2022-12-06T04:51:55.880Z,4.30
2022-12-06T04:54:23.717Z,4.07
2022-12-06T04:56:50.572Z,4.22
2022-12-06T04:59:17.674Z,3.90
2022-12-06T05:01:44.579Z,4.60
2022-12-06T05:04:11.275Z,5.13
2022-12-06T05:06:38.040Z,5.30
2022-12-06T05:09:04.890Z,5.28
2022-12-06T05:11:31.945Z,4.40
2022-12-06T05:13:59.331Z,4.22
2022-12-06T05:16:26.258Z,4.72
2022-12-06T05:18:53.026Z,5.07
2022-12-06T05:21:22.823Z,4.78
2022-12-06T05:23:49.966Z,4.50
2022-12-06T05:26:19.228Z,3.97
2022-12-06T05:28:47.457Z,3.92
2022-12-06T05:31:14.778Z,4.63
2022-12-06T05:33:41.685Z,6.88
2022-12-06T05:36:10.089Z,7.45
2022-12-06T05:38:37.012Z,5.63
2022-12-06T05:41:04.987Z,3.63
2022-12-06T05:43:32.105Z,3.38
2022-12-06T05:45:59.420Z,3.28
2022-12-06T05:48:26.682Z,3.70
2022-12-06T05:50:53.806Z,3.75
2022-12-06T05:53:21.286Z,4.07
2022-12-06T05:55:48.738Z,4.60
2022-12-06T05:58:16.144Z,6.03
2022-12-06T06:00:46.821Z,6.40
2022-12-06T06:03:13.817Z,4.78
2022-12-06T06:05:50.072Z,4.93
2022-12-06T06:08:17.693Z,4.90
2022-12-06T06:10:45.262Z,4.50
2022-12-06T06:13:12.333Z,3.80
2022-12-06T06:15:39.040Z,4.40
2022-12-06T06:18:05.799Z,3.85
2022-12-06T06:20:32.627Z,3.65
2022-12-06T06:22:59.277Z,3.42
2022-12-06T06:25:26.250Z,3.92
2022-12-06T06:27:53.198Z,4.75
2022-12-06T06:30:19.926Z,3.95
2022-12-06T06:32:46.658Z,3.70
2022-12-06T06:35:13.386Z,3.53
2022-12-06T06:37:40.070Z,3.47
2022-12-06T06:40:07.491Z,3.03
2022-12-06T06:42:34.134Z,3.92
2022-12-06T06:45:00.807Z,3.92
2022-12-06T06:47:27.501Z,5.05
2022-12-06T06:49:54.157Z,4.75
2022-12-06T06:52:20.871Z,4.35
2022-12-06T06:54:47.508Z,5.35
2022-12-06T06:57:17.783Z,4.95
2022-12-06T06:59:45.648Z,4.00
2022-12-06T07:02:17.441Z,4.75
2022-12-06T07:04:45.074Z,4.53
2022-12-06T07:07:16.472Z,4.32
2022-12-06T07:09:46.081Z,3.33
2022-12-06T07:12:13.484Z,3.35
2022-12-06T07:14:40.203Z,3.58
2022-12-06T07:17:07.040Z,4.10
2022-12-06T07:19:33.742Z,3.63
2022-12-06T07:22:00.472Z,3.50
2022-12-06T07:24:27.133Z,3.42
2022-12-06T07:26:56.786Z,3.08
2022-12-06T07:29:23.561Z,3.58
2022-12-06T07:31:50.229Z,3.70
2022-12-06T07:34:16.899Z,3.83
2022-12-06T07:36:43.571Z,3.95
2022-12-06T07:39:14.533Z,3.97
2022-12-06T07:42:00.057Z,4.55
2022-12-06T07:45:01.566Z,3.45
2022-12-06T07:47:37.522Z,3.40
2022-12-06T07:50:09.470Z,3.10
2022-12-06T07:52:38.748Z,2.67
2022-12-06T07:55:07.300Z,3.00
2022-12-06T07:57:37.357Z,3.00
2022-12-06T08:00:09.907Z,3.65
2022-12-06T08:02:39.495Z,4.22
2022-12-06T08:05:06.379Z,4.80
2022-12-06T08:07:33.174Z,3.60
2022-12-06T08:10:00.421Z,4.25
2022-12-06T08:12:32.162Z,3.22
2022-12-06T08:14:59.908Z,3.00
2022-12-06T08:17:27.906Z,4.18
2022-12-06T08:19:54.716Z,4.00
2022-12-06T08:22:21.600Z,4.47
2022-12-06T08:24:48.330Z,4.57
2022-12-06T08:27:15.405Z,4.82
2022-12-06T08:29:45.141Z,5.00
2022-12-06T08:32:12.088Z,4.40
2022-12-06T08:34:38.786Z,3.78
2022-12-06T08:37:05.470Z,3.67
2022-12-06T08:39:32.106Z,3.42
2022-12-06T08:41:58.784Z,3.53
2022-12-06T08:44:29.499Z,5.32
2022-12-06T08:46:57.837Z,5.45
2022-12-06T08:49:25.376Z,4.50
2022-12-06T08:51:52.962Z,4.57
2022-12-06T08:54:22.835Z,3.92
2022-12-06T08:56:50.904Z,3.75
2022-12-06T08:59:18.173Z,4.82
2022-12-06T09:01:45.700Z,5.47
2022-12-06T09:04:13.165Z,5.15
2022-12-06T09:06:42.342Z,5.85
2022-12-06T09:09:11.230Z,4.30
2022-12-06T09:11:39.800Z,4.60
2022-12-06T09:14:09.195Z,3.83
2022-12-06T09:16:36.402Z,3.83
2022-12-06T09:19:03.648Z,3.30
2022-12-06T09:21:30.769Z,3.80
2022-12-06T09:23:58.116Z,3.10
2022-12-06T09:26:25.941Z,2.92
2022-12-06T09:28:55.444Z,3.00
2022-12-06T09:31:22.947Z,3.42
2022-12-06T09:33:49.737Z,3.70
2022-12-06T09:36:24.072Z,3.00
2022-12-06T09:38:56.585Z,4.03
2022-12-06T09:41:48.168Z,3.45
2022-12-06T09:45:12.220Z,3.40
2022-12-06T09:48:08.322Z,3.75
2022-12-06T09:50:53.654Z,3.67
2022-12-06T09:53:52.228Z,3.75
2022-12-06T09:56:47.635Z,3.70
2022-12-06T09:59:26.903Z,3.35
2022-12-06T10:02:02.975Z,4.55
2022-12-06T10:04:41.925Z,4.82
2022-12-06T10:07:14.451Z,5.13
2022-12-06T10:12:28.929Z,4.20
2022-12-06T10:15:14.394Z,4.60
2022-12-06T10:17:53.262Z,4.43
2022-12-06T10:20:41.028Z,5.13
2022-12-06T10:23:14.020Z,3.65
2022-12-06T10:25:56.895Z,3.55
2022-12-06T10:28:55.951Z,3.15
2022-12-06T10:31:27.507Z,3.55
2022-12-06T10:34:11.341Z,2.60
2022-12-06T10:36:44.780Z,2.92
2022-12-06T10:39:22.561Z,3.17
2022-12-06T10:42:06.426Z,3.13
2022-12-06T10:44:45.256Z,3.00
2022-12-06T10:47:19.061Z,2.78
2022-12-06T10:50:22.425Z,3.00
2022-12-06T10:52:57.264Z,2.95
2022-12-06T10:55:34.800Z,2.28
2022-12-06T10:58:19.664Z,2.40
2022-12-06T11:00:56.203Z,3.50
2022-12-06T11:03:31.734Z,2.75
2022-12-06T11:06:07.592Z,2.53
2022-12-06T11:08:41.300Z,2.30
2022-12-06T11:11:18.506Z,2.40
2022-12-06T11:13:49.743Z,2.53
2022-12-06T11:16:22.282Z,2.90
2022-12-06T11:18:50.107Z,3.42
2022-12-06T11:21:43.638Z,2.67
2022-12-06T11:24:28.777Z,2.92
2022-12-06T11:27:04.668Z,2.80
2022-12-06T11:29:31.648Z,3.17
2022-12-06T11:32:07.543Z,2.78
2022-12-06T11:34:47.213Z,3.30
2022-12-06T11:37:20.504Z,3.25
2022-12-06T11:39:51.515Z,3.53
2022-12-06T11:42:24.033Z,3.40
2022-12-06T11:45:00.578Z,3.15
2022-12-06T11:47:27.306Z,3.13
2022-12-06T11:49:55.596Z,3.50
2022-12-06T11:52:30.332Z,2.97
2022-12-06T11:55:02.401Z,3.42
2022-12-06T11:57:37.133Z,2.92
2022-12-06T12:00:13.431Z,4.28
2022-12-06T12:02:41.894Z,5.68
2022-12-06T12:05:17.821Z,4.85
2022-12-06T12:07:48.433Z,3.90
2022-12-06T12:10:38.351Z,3.38
2022-12-06T12:13:29.897Z,3.45
2022-12-06T12:16:00.871Z,4.03
2022-12-06T12:18:34.956Z,4.00
2022-12-06T12:21:02.944Z,4.30
2022-12-06T12:23:34.334Z,3.75
2022-12-06T12:26:19.437Z,3.78
2022-12-06T12:29:06.386Z,3.45
2022-12-06T12:31:33.392Z,3.70
2022-12-06T12:34:20.362Z,3.30
2022-12-06T12:36:53.820Z,3.47
2022-12-06T12:39:39.733Z,3.17
2022-12-06T12:42:33.881Z,3.63
2022-12-06T12:45:04.305Z,4.00
2022-12-06T12:47:32.734Z,3.75
2022-12-06T12:50:15.512Z,4.20
2022-12-06T12:52:42.427Z,3.70
2022-12-06T12:55:27.674Z,3.80
2022-12-06T12:57:57.370Z,4.18
2022-12-06T13:00:26.476Z,4.18
2022-12-06T13:03:07.837Z,4.70
2022-12-06T13:05:46.680Z,4.90
2022-12-06T13:08:22.194Z,5.15
2022-12-06T13:10:58.442Z,4.93
2022-12-06T13:13:30.514Z,5.53
2022-12-06T13:16:01.300Z,5.90
2022-12-06T13:18:38.545Z,6.55
2022-12-06T13:21:24.497Z,5.43
2022-12-06T13:24:10.276Z,5.82
2022-12-06T13:26:44.720Z,5.18
2022-12-06T13:29:28.932Z,6.38
2022-12-06T13:31:59.733Z,5.50
2022-12-06T13:34:41.422Z,6.18
2022-12-06T13:37:26.992Z,6.13
2022-12-06T13:39:54.131Z,6.10
2022-12-06T13:42:29.834Z,6.40
2022-12-06T13:45:01.824Z,5.75
2022-12-06T13:47:28.466Z,6.28
2022-12-06T13:50:00.147Z,5.70
2022-12-06T13:52:42.061Z,5.72
2022-12-06T13:55:26.730Z,5.47
2022-12-06T13:58:16.374Z,6.20
2022-12-06T14:00:43.037Z,5.90
2022-12-06T14:03:19.039Z,6.05
2022-12-06T14:06:01.132Z,6.00
2022-12-06T14:08:44.088Z,5.82
2022-12-06T14:11:17.190Z,6.75
2022-12-06T14:13:46.721Z,6.28
2022-12-06T14:16:22.587Z,6.78
2022-12-06T14:18:50.420Z,6.60
2022-12-06T14:21:40.983Z,6.30
2022-12-06T14:24:29.039Z,6.57
2022-12-06T14:27:13.969Z,6.70
2022-12-06T14:29:42.238Z,5.88
2022-12-06T14:32:09.433Z,6.22
2022-12-06T14:34:37.134Z,6.25
2022-12-06T14:37:19.827Z,5.75
2022-12-06T14:39:52.415Z,6.25
2022-12-06T14:42:39.293Z,5.60
2022-12-06T14:45:13.727Z,6.00
2022-12-06T14:47:40.976Z,5.20
2022-12-06T14:50:53.994Z,6.25
2022-12-06T14:53:38.120Z,6.30
2022-12-06T14:56:07.520Z,6.05
2022-12-06T14:58:42.880Z,6.43
2022-12-06T15:01:22.942Z,6.43
2022-12-06T15:04:07.409Z,5.47
2022-12-06T15:06:35.901Z,6.57
2022-12-06T15:09:02.601Z,6.88
2022-12-06T15:11:48.031Z,6.32
2022-12-06T15:14:22.981Z,6.03
2022-12-06T15:17:17.865Z,4.20
2022-12-06T15:19:47.752Z,3.45
2022-12-06T15:22:25.365Z,3.13
2022-12-06T15:24:57.786Z,2.28
2022-12-06T15:27:27.074Z,2.47
2022-12-06T15:29:54.185Z,2.42
2022-12-06T15:32:23.758Z,2.53
2022-12-06T15:34:50.450Z,2.53
2022-12-06T15:40:04.637Z,2.88
2022-12-06T15:42:31.571Z,2.50
2022-12-06T15:44:58.209Z,2.97
2022-12-06T15:47:24.926Z,3.13
2022-12-06T15:49:53.338Z,3.65
2022-12-06T15:52:24.951Z,3.28
2022-12-06T15:54:52.297Z,3.80
2022-12-06T15:57:19.084Z,3.58
2022-12-06T15:59:45.766Z,3.90
2022-12-06T16:02:15.571Z,4.30
2022-12-06T16:04:43.162Z,4.00
2022-12-06T16:07:10.765Z,4.10
2022-12-06T16:09:37.963Z,4.82
2022-12-06T16:12:04.969Z,4.57
2022-12-06T16:14:31.590Z,4.32
2022-12-06T16:16:58.232Z,5.40
2022-12-06T16:19:44.910Z,4.53
2022-12-06T16:22:11.574Z,4.38
2022-12-06T16:24:38.198Z,3.95
2022-12-06T16:27:04.864Z,4.57
2022-12-06T16:29:31.524Z,4.15
2022-12-06T16:31:58.366Z,4.03
2022-12-06T16:34:25.232Z,3.00
2022-12-06T16:37:09.033Z,2.88
2022-12-06T16:39:35.794Z,2.88
2022-12-06T16:42:04.838Z,3.10
2022-12-06T16:44:31.956Z,2.83
2022-12-06T16:46:58.941Z,2.92
2022-12-06T16:49:45.699Z,3.15
2022-12-06T16:52:13.542Z,3.20
2022-12-06T16:54:41.566Z,3.10
2022-12-06T16:57:10.109Z,3.58
2022-12-06T16:59:37.079Z,3.70
2022-12-06T17:02:07.273Z,3.28
2022-12-06T17:04:38.310Z,3.08
2022-12-06T17:07:04.984Z,3.50
2022-12-06T17:09:31.764Z,3.35
2022-12-06T17:12:06.370Z,3.75
2022-12-06T17:14:33.226Z,3.58
2022-12-06T17:17:03.952Z,4.05
2022-12-06T17:19:31.930Z,3.60
2022-12-06T17:21:59.466Z,4.35
2022-12-06T17:24:26.851Z,4.05
2022-12-06T17:26:55.193Z,4.30
2022-12-06T17:29:23.644Z,4.25
2022-12-06T17:31:51.278Z,4.20
2022-12-06T17:34:19.383Z,4.63
2022-12-06T17:36:47.179Z,4.70
2022-12-06T17:39:16.596Z,4.28
2022-12-06T17:42:01.943Z,4.63
2022-12-06T17:44:28.662Z,4.38
2022-12-06T17:46:56.026Z,4.88
2022-12-06T17:49:24.726Z,4.97
2022-12-06T17:51:51.793Z,4.63
2022-12-06T17:54:19.581Z,4.60
2022-12-06T17:56:50.896Z,4.90
2022-12-06T17:59:20.567Z,4.70
2022-12-06T18:04:34.905Z,4.57
2022-12-06T18:07:01.663Z,4.53
2022-12-06T18:09:28.321Z,4.53
2022-12-06T18:11:55.776Z,4.10
2022-12-06T18:14:22.730Z,5.30
2022-12-06T18:16:49.529Z,5.05
2022-12-06T18:19:18.478Z,4.15
2022-12-06T18:21:45.770Z,4.45
2022-12-06T18:24:24.630Z,4.15
2022-12-06T18:26:53.450Z,4.53
2022-12-06T18:29:23.001Z,5.03
2022-12-06T18:31:51.286Z,5.85
2022-12-06T18:34:18.531Z,5.63
2022-12-06T18:36:45.267Z,5.53
2022-12-06T18:39:16.152Z,5.68
2022-12-06T18:41:46.257Z,5.50
2022-12-06T18:44:13.666Z,6.07
2022-12-06T18:46:42.578Z,5.15
2022-12-06T18:49:11.855Z,5.45
2022-12-06T18:51:39.050Z,6.10
2022-12-06T18:54:06.815Z,5.38
2022-12-06T18:56:34.715Z,5.45
2022-12-06T18:59:04.356Z,5.55
2022-12-06T19:01:33.827Z,5.93
2022-12-06T19:04:05.351Z,5.93
2022-12-06T19:06:37.209Z,5.97
2022-12-06T19:09:10.181Z,6.07
2022-12-06T19:11:42.821Z,5.95
2022-12-06T19:14:10.258Z,5.63
2022-12-06T19:16:38.676Z,6.53
2022-12-06T19:19:12.834Z,6.40
2022-12-06T19:21:43.911Z,5.97
2022-12-06T19:24:12.641Z,6.90
2022-12-06T19:26:39.974Z,5.65
2022-12-06T19:29:06.691Z,6.22
2022-12-06T19:31:33.655Z,6.05
2022-12-06T19:34:00.573Z,6.03
2022-12-06T19:36:29.260Z,6.13
2022-12-06T19:39:00.698Z,5.93
2022-12-06T19:41:28.007Z,6.53
2022-12-06T19:44:13.311Z,5.82
2022-12-06T19:46:42.733Z,5.60
2022-12-06T19:49:10.432Z,5.43
2022-12-06T19:51:42.564Z,5.13
2022-12-06T19:54:10.754Z,4.78
2022-12-06T19:56:39.311Z,5.28
2022-12-06T19:59:11.704Z,4.78
2022-12-06T20:01:43.905Z,4.80
2022-12-06T20:04:16.319Z,5.55
2022-12-06T20:09:10.147Z,5.45
2022-12-06T20:12:07.465Z,4.68
2022-12-06T20:14:38.013Z,4.80
2022-12-06T20:17:08.273Z,5.45
2022-12-06T20:19:35.090Z,4.85
2022-12-06T20:22:02.072Z,4.82
2022-12-06T20:24:28.924Z,4.78
2022-12-06T20:26:56.284Z,4.25
2022-12-06T20:29:23.278Z,4.93
2022-12-06T20:31:51.485Z,4.85
2022-12-06T20:34:18.904Z,5.25
2022-12-06T20:36:45.736Z,4.95
2022-12-06T20:39:19.433Z,4.95
2022-12-06T20:41:46.876Z,4.10
2022-12-06T20:44:14.209Z,5.13
2022-12-06T20:46:40.965Z,4.88
2022-12-06T20:49:07.727Z,5.35
2022-12-06T20:51:34.589Z,4.63
2022-12-06T20:54:05.005Z,5.53
2022-12-06T20:56:39.090Z,4.78
2022-12-06T20:59:07.417Z,5.13
2022-12-06T21:01:37.136Z,4.95
2022-12-06T21:04:03.988Z,5.05
2022-12-06T21:06:30.729Z,5.20
2022-12-06T21:08:57.454Z,5.07
2022-12-06T21:11:25.255Z,5.03
2022-12-06T21:13:53.738Z,4.93
2022-12-06T21:16:26.498Z,4.20
2022-12-06T21:19:00.901Z,4.53
2022-12-06T21:21:32.371Z,4.20
2022-12-06T21:24:03.210Z,4.85
2022-12-06T21:26:31.190Z,4.57
2022-12-06T21:28:58.404Z,4.22
2022-12-06T21:31:30.379Z,4.90
2022-12-06T21:33:58.043Z,4.28
2022-12-06T21:36:25.420Z,5.00
2022-12-06T21:38:52.682Z,5.07
2022-12-06T21:41:19.521Z,4.47
2022-12-06T21:43:46.428Z,5.15
2022-12-06T21:46:24.802Z,4.90
2022-12-06T21:48:56.479Z,5.60
2022-12-06T21:51:25.392Z,5.13
2022-12-06T21:53:52.653Z,5.05
2022-12-06T21:56:27.300Z,5.18
2022-12-06T21:58:54.463Z,5.28
2022-12-06T22:01:28.190Z,4.97
2022-12-06T22:03:58.081Z,4.80
2022-12-06T22:06:25.799Z,5.00
2022-12-06T22:09:01.551Z,6.05
2022-12-06T22:11:29.835Z,5.38
2022-12-06T22:13:58.984Z,5.78
2022-12-06T22:16:26.249Z,5.53
2022-12-06T22:18:55.278Z,5.97
2022-12-06T22:21:28.017Z,5.30
2022-12-06T22:23:58.262Z,5.63
2022-12-06T22:26:28.392Z,5.70
2022-12-06T22:28:55.587Z,5.63
2022-12-06T22:31:25.092Z,5.00
2022-12-06T22:33:52.753Z,4.95
2022-12-06T22:36:21.178Z,5.95
2022-12-06T22:38:50.500Z,5.30
2022-12-06T22:41:19.527Z,5.57
2022-12-06T22:43:50.645Z,5.35
2022-12-06T22:46:17.702Z,4.85
2022-12-06T22:48:44.933Z,5.53
2022-12-06T22:51:16.404Z,5.03
2022-12-06T22:53:46.036Z,5.53
2022-12-06T22:56:13.859Z,4.97
2022-12-06T22:58:41.395Z,5.70
2022-12-06T23:01:19.287Z,5.60
2022-12-06T23:03:47.729Z,5.93
2022-12-06T23:06:17.058Z,5.88
2022-12-06T23:08:44.477Z,5.50
2022-12-06T23:11:20.099Z,5.50
2022-12-06T23:13:47.905Z,5.57
2022-12-06T23:16:17.621Z,5.68
2022-12-06T23:18:45.095Z,5.70
2022-12-06T23:21:14.699Z,5.55
2022-12-06T23:23:44.398Z,6.25
2022-12-06T23:26:16.648Z,5.82
2022-12-06T23:28:44.293Z,6.30
2022-12-06T23:31:14.322Z,6.45
2022-12-06T23:33:42.148Z,5.75
2022-12-06T23:36:20.598Z,6.80
2022-12-06T23:38:47.588Z,6.70
2022-12-06T23:41:26.360Z,6.28
2022-12-06T23:43:54.258Z,6.30
2022-12-06T23:46:24.289Z,6.00
2022-12-06T23:48:52.025Z,6.15
2022-12-06T23:51:21.180Z,6.05
2022-12-06T23:53:52.805Z,7.03
2022-12-06T23:56:21.508Z,6.70
2022-12-06T23:58:50.541Z,6.05
